• Join FlightAware (Why Join?)
  • Login
  • US Flag 
09:03AM EDT


 

Airport Tracker/Info


-or-


 

Live Flight TrackerFlight Track Log ✈ UAL1124 ✈ 24-Apr-2013 ✈ KIAD - TJSJ / SJU

Flight Track Log - Related Links

Times and Time Zones

All times are in EDT time to prevent confusion due to time zone crossing. See the UAL1124 flight status page for this flight to view local times or setup timezone preferences in your user account.

Time Position Orientation Groundspeed Altitude Reporting Facility
EDT Latitude Longitude Course Direction KTS MPH feet Rate Location/Type
09:08AM 38.9840 -77.5460 328° Northwest 229 264 2,900  Level FlightAware
09:08AM 38.9970 -77.5510 343° North 238 274 3,600 2,820 Climbing FlightAware
09:09AM 39.0300 -77.5310 25° Northeast 282 325 4,800 2,580 Climbing FlightAware
09:09AM 39.0580 -77.4980 42° Northeast 296 341 6,200 2,880 Climbing FlightAware
09:10AM 39.0730 -77.4790 45° Northeast 301 346 7,000 3,120 Climbing FlightAware
09:10AM 39.0960 -77.4530 41° Northeast 308 354 8,300 2,820 Climbing FlightAware
09:10AM 39.1140 -77.4340 39° Northeast 312 359 8,900 1,980 Climbing FlightAware
09:11AM 39.1470 -77.3960 42° Northeast 322 371 9,800 1,080 Climbing FlightAware
09:11AM 39.1670 -77.3560 57° Northeast 324 373 9,900 120 Climbing FlightAware
09:11AM 39.1690 -77.3340 83° East 322 371 9,900  Level FlightAware
09:12AM 39.1620 -77.2810 100° East 317 365 9,900 660 Level FlightAware
09:13AM 39.1410 -77.2020 109° East 350 403 10,700 1,680 Climbing FlightAware
09:13AM 39.1200 -77.1200 108° East 379 436 12,200 2,580 Climbing FlightAware
09:14AM 39.0616 -76.9622 115° Southeast 397 457 15,400 2,640 Climbing FlightAware ADS-B
09:15AM 39.0462 -76.9500 148° Southeast 393 452 15,700 2,400 Climbing FlightAware ADS-B
09:15AM 39.0259 -76.9404 160° South 387 445 16,300 2,700 Climbing FlightAware ADS-B
09:15AM 38.9768 -76.9269 168° South 389 448 17,500 2,460 Climbing FlightAware ADS-B
09:16AM 38.9365 -76.9121 164° South 398 458 18,400 2,100 Climbing FlightAware ADS-B
09:16AM 38.9039 -76.8969 160° South 405 466 19,000 720 Climbing FlightAware ADS-B
09:16AM 38.8496 -76.8701 159° South 404 465 19,000  Level FlightAware ADS-B
09:17AM 38.7951 -76.8424 158° South 400 460 19,000  Level FlightAware ADS-B
09:17AM 38.7392 -76.8155 159° South 398 458 19,000  Level FlightAware ADS-B
09:18AM 38.6990 -76.7961 159° South 397 457 19,000  Level FlightAware ADS-B
09:18AM 38.6488 -76.7695 158° South 395 455 19,000  Level FlightAware ADS-B
09:19AM 38.5949 -76.7419 158° South 395 455 19,000 180 Level FlightAware ADS-B
09:19AM 38.5582 -76.7277 163° South 395 455 19,200 1,020 Climbing FlightAware ADS-B
09:20AM 38.5259 -76.7202 170° South 395 455 19,700 1,920 Climbing FlightAware ADS-B
09:20AM 38.4453 -76.7093 174° South 400 460 21,200 1,800 Climbing FlightAware ADS-B
09:21AM 38.3800 -76.7010 174° South 407 468 22,500 1,920 Climbing FlightAware
09:21AM 38.3140 -76.6923 174° South 412 474 23,500 1,740 Climbing FlightAware ADS-B
09:23AM 38.1730 -76.6740 174° South 424 488 25,600 1,500 Climbing FlightAware
09:24AM 38.0470 -76.6570 174° South 436 502 27,200 1,500 Climbing FlightAware
09:24AM 37.9890 -76.6490 174° South 441 507 27,900 1,320 Climbing FlightAware
09:25AM 37.9000 -76.6380 174° South 448 516 28,900 1,320 Climbing FlightAware
09:26AM 37.8240 -76.6280 174° South 452 520 29,700 1,080 Climbing FlightAware
09:26AM 37.7390 -76.6160 174° South 460 529 30,400 1,080 Climbing FlightAware
09:27AM 37.6390 -76.6030 174° South 464 534 31,400 1,260 Climbing FlightAware
09:28AM 37.5640 -76.5930 174° South 464 534 32,200 1,260 Climbing FlightAware
09:28AM 37.4730 -76.5820 175° South 466 536 33,000 1,200 Climbing FlightAware
09:29AM 37.3970 -76.5720 174° South 467 537 33,700 420 Climbing FlightAware
09:31AM 37.1990 -76.5460 174° South 470 541 34,000 660 Climbing FlightAware
09:31AM 37.1070 -76.5340 174° South 469 540 35,200 900 Climbing FlightAware
09:32AM 37.0180 -76.5230 174° South 469 540 35,200  Level FlightAware
09:33AM 36.9450 -76.5130 174° South 469 540 35,200  Level FlightAware
09:33AM 36.8720 -76.5030 174° South 469 540 35,200  Level FlightAware
09:34AM 36.7800 -76.4910 174° South 469 540 35,200 360 Level FlightAware
09:34AM 36.7100 -76.4100 137° Southeast 37,000 480 Climbing FlightAware
09:38AM 36.3730 -76.1060 144° Southeast 474 545 37,000  Level FlightAware
09:38AM 36.3130 -76.0520 144° Southeast 474 545 37,000  Level FlightAware
09:39AM 36.2530 -75.9980 144° Southeast 474 545 37,000  Level FlightAware
09:40AM 36.1920 -75.9430 144° Southeast 474 545 37,000  Level FlightAware
09:40AM 36.1320 -75.8890 144° Southeast 474 545 37,000  Level FlightAware
09:41AM 36.0570 -75.8210 144° Southeast 474 545 37,000  Level FlightAware
09:42AM 35.9960 -75.7670 144° Southeast 474 545 37,000  Level FlightAware
09:42AM 35.9360 -75.7130 144° Southeast 474 545 37,000  Level FlightAware
09:43AM 35.8760 -75.6590 144° Southeast 474 545 37,000  Level FlightAware
09:44AM 35.8150 -75.6050 144° Southeast 474 545 37,000  Level FlightAware
09:45AM 35.7400 -75.5370 144° Southeast 474 545 37,000  Level FlightAware
09:45AM 35.6800 -75.4830 144° Southeast 474 545 37,000  Level FlightAware
09:46AM 35.6190 -75.4290 144° Southeast 474 545 37,000  Level FlightAware
09:47AM 35.5590 -75.3750 144° Southeast 474 545 37,000  Level FlightAware
09:47AM 35.4244 -75.0878 144° Southeast 475 547 37,000  Level New York Center
09:48AM 35.3328 -74.9731 134° Southeast 475 547 37,000  Level New York Center
09:49AM 35.2475 -74.8492 130° Southeast 475 547 37,000  Level New York Center
09:50AM 35.1533 -74.7375 136° Southeast 475 547 37,000 -60 Level New York Center
09:51AM 35.0653 -74.6239 133° Southeast 475 547 36,900  Descending New York Center
09:52AM 34.9753 -74.5056 133° Southeast 475 547 37,000  Climbing New York Center
09:53AM 34.8831 -74.3922 135° Southeast 475 547 36,900  Descending New York Center
09:54AM 34.7947 -74.2744 132° Southeast 475 547 37,000  Climbing New York Center
09:55AM 34.7019 -74.1694 137° Southeast 470 541 37,000  Level New York Center
09:56AM 34.6114 -74.0519 133° Southeast 470 541 37,000 -60 Level New York Center
09:57AM 34.5208 -73.9350 133° Southeast 470 541 36,900  Descending New York Center
09:58AM 34.4278 -73.8256 136° Southeast 477 549 37,000  Climbing New York Center
09:59AM 34.3342 -73.7389 143° Southeast 477 549 37,000  Level New York Center
10:00AM 34.1975 -73.6961 165° South 452 520 37,000  Level New York Center
10:01AM 34.0736 -73.6517 163° South 457 526 37,000 -60 Level New York Center
10:02AM 33.9536 -73.6072 163° South 457 526 36,900  Descending New York Center
10:03AM 33.8022 -73.5794 171° South 531 611 37,000  Climbing New York Center
10:04AM 33.7033 -73.5286 157° South 410 472 37,000 -60 Level New York Center
10:05AM 33.5539 -73.5011 171° South 501 577 36,900  Descending New York Center
10:06AM 33.4339 -73.4597 164° South 487 560 37,000  Climbing New York Center
10:08AM 33.2712 -73.3977 162° South  Level FlightAware Approximate
10:15AM 32.4143 -73.1344 166° South  Level FlightAware Approximate
10:16AM 32.2918 -73.0974 165° South  Level FlightAware Approximate
10:17AM 32.1695 -73.0595 165° South  Level FlightAware Approximate
10:18AM 32.0472 -73.0217 165° South  Level FlightAware Approximate
10:19AM 31.9248 -72.9839 165° South  Level FlightAware Approximate
10:20AM 31.8025 -72.9463 165° South  Level FlightAware Approximate
10:21AM 31.6802 -72.9087 165° South  Level FlightAware Approximate
10:22AM 31.5578 -72.8713 165° South  Level FlightAware Approximate
10:23AM 31.4354 -72.8339 165° South  Level FlightAware Approximate
10:24AM 31.3131 -72.7967 165° South  Level FlightAware Approximate
10:25AM 31.1907 -72.7596 165° South  Level FlightAware Approximate
10:26AM 31.0683 -72.7225 165° South  Level FlightAware Approximate
10:27AM 30.9459 -72.6855 165° South  Level FlightAware Approximate
10:28AM 30.8235 -72.6487 166° South  Level FlightAware Approximate
10:29AM 30.7010 -72.6119 166° South  Level FlightAware Approximate
10:30AM 30.5786 -72.5752 166° South  Level FlightAware Approximate
10:31AM 30.4569 -72.5355 164° South  Level FlightAware Approximate
10:32AM 30.3354 -72.4950 164° South  Level FlightAware Approximate
10:33AM 30.2138 -72.4545 164° South  Level FlightAware Approximate
10:34AM 30.0913 -72.4186 168° South  Level FlightAware Approximate
10:34AM 30.1667 -72.4500 166° South 465 535 37,000  Level New York Oceanic (ODAPS)
10:35AM 29.9678 -72.3877 168° South  Level FlightAware Approximate
10:36AM 29.8446 -72.3550 165° South  Level FlightAware Approximate
10:37AM 29.7222 -72.3184 165° South  Level FlightAware Approximate
10:38AM 29.5998 -72.2818 165° South  Level FlightAware Approximate
10:39AM 29.4774 -72.2453 165° South  Level FlightAware Approximate
10:40AM 29.3550 -72.2089 165° South  Level FlightAware Approximate
10:41AM 29.0338 -72.1235 166° South 465 535 37,000  Level FlightAware Transoceanic
10:42AM 28.9079 -72.0876 166° South 465 535 37,000  Level FlightAware Transoceanic
10:43AM 28.7820 -72.0519 166° South 465 535 37,000  Level FlightAware Transoceanic
10:44AM 28.6560 -72.0162 166° South 465 535 37,000  Level FlightAware Transoceanic
10:45AM 28.5301 -71.9806 166° South 465 535 37,000  Level FlightAware Transoceanic
10:46AM 28.4041 -71.9451 166° South 465 535 37,000  Level FlightAware Transoceanic
10:47AM 28.2782 -71.9097 166° South 465 535 37,000  Level FlightAware Transoceanic
10:48AM 28.1522 -71.8744 166° South 465 535 37,000  Level FlightAware Transoceanic
10:49AM 28.0262 -71.8391 166° South 465 535 37,000  Level FlightAware Transoceanic
10:50AM 27.9002 -71.8040 166° South 465 535 37,000  Level FlightAware Transoceanic
10:51AM 27.7742 -71.7689 166° South 465 535 37,000  Level FlightAware Transoceanic
10:52AM 27.6482 -71.7339 166° South 465 535 37,000  Level FlightAware Transoceanic
10:53AM 27.5222 -71.6990 166° South 465 535 37,000  Level FlightAware Transoceanic
10:54AM 27.3961 -71.6642 166° South 465 535 37,000  Level FlightAware Transoceanic
10:55AM 27.2701 -71.6294 166° South 465 535 37,000  Level FlightAware Transoceanic
10:56AM 27.1441 -71.5947 166° South 465 535 37,000  Level FlightAware Transoceanic
10:57AM 27.0180 -71.5601 166° South 465 535 37,000  Level FlightAware Transoceanic
10:58AM 26.8919 -71.5256 166° South 465 535 37,000  Level FlightAware Transoceanic
10:59AM 26.7659 -71.4911 166° South 465 535 37,000  Level FlightAware Transoceanic
11:00AM 26.6398 -71.4568 166° South 465 535 37,000  Level FlightAware Transoceanic
11:01AM 26.5137 -71.4225 166° South 465 535 37,000  Level FlightAware Transoceanic
11:02AM 26.3876 -71.3883 166° South 465 535 37,000  Level FlightAware Transoceanic
11:03AM 26.2615 -71.3541 166° South 465 535 37,000  Level FlightAware Transoceanic
11:04AM 26.1354 -71.3201 166° South 465 535 37,000  Level FlightAware Transoceanic
11:05AM 26.0093 -71.2861 166° South 465 535 37,000  Level FlightAware Transoceanic
11:06AM 25.8831 -71.2521 166° South 465 535 37,000  Level FlightAware Transoceanic
11:07AM 25.7570 -71.2183 166° South 465 535 37,000  Level FlightAware Transoceanic
11:08AM 25.6308 -71.1845 166° South 465 535 37,000  Level FlightAware Transoceanic
11:09AM 25.5047 -71.1508 166° South 465 535 37,000  Level FlightAware Transoceanic
11:10AM 25.3785 -71.1172 166° South 465 535 37,000  Level FlightAware Transoceanic
11:11AM 25.2524 -71.0836 166° South 465 535 37,000  Level FlightAware Transoceanic
11:11AM 25.1981 -71.0961 147° Southeast 447 514 37,000  Level Miami Center
11:12AM 25.1262 -71.0501 166° South 465 535 37,000  Level FlightAware Transoceanic
11:12AM 25.0653 -71.0656 168° South 465 535 37,000  Level Miami Center
11:13AM 25.0000 -71.0167 147° Southeast 465 535 37,000  Level FlightAware Transoceanic
11:13AM 24.9536 -70.9883 148° Southeast 462 532 37,000  Level Miami Center
11:14AM 24.8868 -70.9349 147° Southeast 465 535 37,000  Level FlightAware Transoceanic
11:14AM 24.8500 -70.8997 142° Southeast 462 532 37,000  Level Miami Center
11:15AM 24.7735 -70.8533 147° Southeast 465 535 37,000  Level FlightAware Transoceanic
11:15AM 24.7403 -70.8250 148° Southeast 476 548 37,000  Level Miami Center
11:16AM 24.6602 -70.7718 147° Southeast 465 535 37,000  Level FlightAware Transoceanic
11:16AM 24.6281 -70.7344 144° Southeast 477 549 37,000  Level Miami Center
11:17AM 24.5211 -70.6736 153° Southeast 469 540 37,000  Level Miami Center
11:18AM 24.4092 -70.5881 145° Southeast 469 540 37,000  Level Miami Center
11:19AM 24.2994 -70.5094 147° Southeast 481 554 37,000  Level Miami Center
11:20AM 24.1872 -70.4242 145° Southeast 481 554 37,000  Level Miami Center
11:21AM 24.0753 -70.3481 148° Southeast 481 554 37,000  Level Miami Center
11:22AM 23.9611 -70.2656 147° Southeast 476 548 37,000  Level Miami Center
11:23AM 23.8447 -70.1853 148° Southeast 485 558 37,000  Level Miami Center
11:24AM 23.7189 -70.1239 156° South 490 564 37,000  Level Miami Center
11:25AM 23.5903 -70.0925 167° South 485 558 37,000  Level Miami Center
11:26AM 23.4550 -70.0519 165° South 490 564 37,000  Level Miami Center
11:27AM 23.3281 -70.0136 165° South 494 568 37,000  Level Miami Center
11:28AM 23.1928 -69.9736 165° South 488 562 37,000  Level Miami Center
11:29AM 23.0614 -69.9333 164° South 493 567 37,000  Level Miami Center
11:30AM 22.9492 -69.8469 145° Southeast 493 567 37,000  Level Miami Center
11:31AM 22.8383 -69.7561 143° Southeast 505 581 37,000  Level Miami Center
11:32AM 22.7297 -69.6656 142° Southeast 500 575 37,000  Level Miami Center
11:33AM 22.6169 -69.5728 143° Southeast 500 575 37,000  Level Miami Center
11:34AM 22.5064 -69.4825 143° Southeast 500 575 37,000  Level Miami Center
11:35AM 22.3933 -69.3903 143° Southeast 505 581 37,000  Level Miami Center
11:36AM 22.2828 -69.3025 144° Southeast 505 581 37,000  Level Miami Center
11:37AM 22.1694 -69.2083 142° Southeast 509 586 37,000  Level Miami Center
11:38AM 22.0567 -69.1189 144° Southeast 514 592 37,000  Level Miami Center
11:39AM 21.9458 -69.0292 143° Southeast 514 592 37,000  Level Miami Center
11:40AM 21.8369 -68.9375 142° Southeast 512 589 37,000  Level Miami Center
11:41AM 21.7047 -68.8383 145° Southeast 511 588 37,000  Level Miami Center
11:42AM 21.6019 -68.7486 141° Southeast 506 582 37,000  Level Miami Center
11:43AM 21.4889 -68.6597 144° Southeast 508 585 37,000  Level Miami Center
11:44AM 21.3758 -68.5711 144° Southeast 501 577 37,000  Level Miami Center
11:45AM 21.2544 -68.4853 147° Southeast 511 588 37,000  Level Miami Center
11:50AM 20.6630 -68.0470 147° Southeast 476 548 37,000  Level FlightAware
11:51AM 20.5770 -68.0220 165° South 476 548 37,000  Level FlightAware
11:52AM 20.4920 -67.9970 165° South 477 549 37,000  Level FlightAware
11:52AM 20.3960 -67.9690 165° South 477 549 37,000  Level FlightAware
11:53AM 20.3150 -67.9460 165° South 477 549 37,000  Level FlightAware
11:54AM 20.2160 -67.9170 165° South 479 551 37,000  Level FlightAware
11:54AM 20.1270 -67.8910 165° South 479 551 37,000  Level FlightAware
11:55AM 20.0330 -67.8640 165° South 479 551 37,000  Level FlightAware
11:56AM 19.9480 -67.8390 165° South 482 555 37,000  Level FlightAware
11:57AM 19.8400 -67.8060 164° South 482 555 37,000 -300 Level FlightAware
11:57AM 19.7650 -67.7680 155° Southeast 500 575 36,600 -1,200 Descending FlightAware
11:58AM 19.7000 -67.6990 135° Southeast 504 580 35,600 -2,220 Descending FlightAware
11:59AM 19.6300 -67.6180 133° Southeast 506 582 33,500 -2,760 Descending FlightAware
11:59AM 19.5680 -67.5470 133° Southeast 501 577 31,700 -2,580 Descending FlightAware
12:00PM 19.5050 -67.4730 132° Southeast 491 565 30,100 -2,340 Descending FlightAware
12:01PM 19.4360 -67.3940 133° Southeast 479 551 28,400 -2,280 Descending FlightAware
12:01PM 19.3770 -67.3260 133° Southeast 465 535 26,900 -2,160 Descending FlightAware
12:02PM 19.3140 -67.2540 133° Southeast 445 512 25,400 -2,100 Descending FlightAware
12:03PM 19.2580 -67.1900 133° Southeast 429 494 24,000 -2,040 Descending FlightAware
12:03PM 19.2050 -67.1290 133° Southeast 414 476 22,700 -1,920 Descending FlightAware
12:04PM 19.1470 -67.0620 132° Southeast 399 459 21,300 -1,920 Descending FlightAware
12:05PM 19.0970 -67.0050 133° Southeast 391 450 20,000 -1,860 Descending FlightAware
12:06PM 19.0440 -66.9450 133° Southeast 388 447 18,700 -1,800 Descending FlightAware
12:06PM 18.9950 -66.8890 133° Southeast 387 445 17,500 -1,980 Descending FlightAware
12:07PM 18.9470 -66.8330 132° Southeast 384 442 16,100 -2,160 Descending FlightAware
12:08PM 18.8920 -66.7700 133° Southeast 377 434 14,500 -2,100 Descending FlightAware
12:08PM 18.8450 -66.7170 133° Southeast 368 423 13,200 -1,920 Descending FlightAware
12:09PM 18.7940 -66.6590 133° Southeast 360 414 11,800 -1,860 Descending FlightAware
12:10PM 18.7530 -66.6060 129° Southeast 340 391 10,600 -1,380 Descending FlightAware
12:10PM 18.7250 -66.5490 117° Southeast 307 353 10,000 -1,020 Descending FlightAware
12:11PM 18.7150 -66.5290 118° Southeast 299 344 9,700 -1,380 Descending FlightAware
12:11PM 18.6960 -66.4900 117° Southeast 289 333 9,000 -1,680 Descending FlightAware
12:12PM 18.6810 -66.4600 118° Southeast 288 331 8,200 -1,800 Descending FlightAware
12:12PM 18.6630 -66.4230 117° Southeast 280 322 7,400 -1,200 Descending FlightAware
12:13PM 18.6490 -66.3950 118° Southeast 263 303 7,100 -900 Descending FlightAware
12:13PM 18.6400 -66.3770 118° Southeast 254 292 6,800 -1,380 Descending FlightAware
12:13PM 18.6140 -66.3520 138° Southeast 241 277 6,100 -1,320 Descending FlightAware
12:14PM 18.5930 -66.3340 141° Southeast 231 266 5,600 -1,440 Descending FlightAware
12:14PM 18.5720 -66.3170 142° Southeast 225 259 4,900 -1,680 Descending FlightAware
12:15PM 18.5490 -66.2970 140° Southeast 220 253 4,100 -1,620 Descending FlightAware
12:15PM 18.5250 -66.2760 140° Southeast 215 247 3,300 -1,200 Descending FlightAware
12:16PM 18.5010 -66.2560 142° Southeast 209 241 2,900 -720 Descending FlightAware
12:16PM 18.4910 -66.2480 143° Southeast 200 230 2,800 -540 Descending FlightAware
12:16PM 18.4780 -66.2370 141° Southeast 188 216 2,600 -780 Descending FlightAware
12:17PM 18.4540 -66.2160 140° Southeast 181 208 2,100 -840 Descending FlightAware
12:17PM 18.4470 -66.2060 126° Southeast 180 207 1,900 -300 Descending FlightAware
12:17PM 18.4360 -66.1850 119° Southeast 181 208 1,900  Level FlightAware
12:18PM 18.4340 -66.1730 100° East 183 211 1,900  Level FlightAware
12:18PM 18.4340 -66.1470 90° East 183 211 1,900  Level FlightAware
12:19PM 18.4340 -66.1230 90° East 177 204 1,900 -480 Level FlightAware
12:19PM 18.4340 -66.0990 90° East 162 186 1,500 -900 Descending FlightAware
12:20PM 18.4340 -66.0810 90° East 149 171 1,100 -840 Descending FlightAware
12:20PM 18.4340 -66.0640 90° East 150 173 800 -720 Descending FlightAware
12:21PM 18.4330 -66.0380 92° East 140 161 400 -600 Descending FlightAware
12:21PM 18.4330 -66.0360 90° East 140 161 400  Level FlightAware